createdAt,value
2018-06-11T00:05:02.688Z,99101.72
2018-06-11T00:11:08.349Z,99107.00
2018-06-11T00:17:14.295Z,99115.95
2018-06-11T00:23:20.121Z,99119.19
2018-06-11T00:29:25.727Z,99111.34
2018-06-11T00:35:31.449Z,99104.82
2018-06-11T00:41:37.063Z,99114.78
2018-06-11T00:47:42.848Z,99117.11
2018-06-11T00:53:48.551Z,99122.30
2018-06-11T00:59:54.231Z,99129.77
2018-06-11T01:06:00.068Z,99140.09
2018-06-11T01:12:05.885Z,99132.90
2018-06-11T01:18:11.525Z,99134.86
2018-06-11T01:24:17.310Z,99141.45
2018-06-11T01:30:23.121Z,99148.11
2018-06-11T01:36:28.820Z,99146.44
2018-06-11T01:42:34.485Z,99138.91
2018-06-11T01:48:40.304Z,99138.44
2018-06-11T01:54:45.943Z,99133.97
2018-06-11T02:00:52.451Z,99133.10
2018-06-11T02:06:58.349Z,99139.81
2018-06-11T02:13:04.417Z,99145.03
2018-06-11T02:19:10.108Z,99137.41
2018-06-11T02:25:15.912Z,99147.33
2018-06-11T02:31:22.231Z,99146.31
2018-06-11T02:37:28.225Z,99142.19
2018-06-11T02:43:33.908Z,99145.66
2018-06-11T02:49:39.616Z,99144.64
2018-06-11T02:55:45.368Z,99143.27
2018-06-11T03:01:51.061Z,99144.11
2018-06-11T03:07:57.104Z,99148.54
2018-06-11T03:14:02.826Z,99140.33
2018-06-11T03:20:08.557Z,99130.66
2018-06-11T03:26:14.198Z,99128.30
2018-06-11T03:32:20.008Z,99149.19
2018-06-11T03:38:25.853Z,99143.46
2018-06-11T03:44:31.457Z,99141.88
2018-06-11T03:50:37.098Z,99133.86
2018-06-11T03:56:42.802Z,99124.16
2018-06-11T04:02:48.516Z,99124.22
2018-06-11T04:08:54.212Z,99122.86
2018-06-11T04:14:59.966Z,99128.09
2018-06-11T04:21:05.634Z,99135.84
2018-06-11T04:27:11.265Z,99139.63
2018-06-11T04:33:16.921Z,99144.59
2018-06-11T04:39:23.021Z,99150.14
2018-06-11T04:45:28.996Z,99150.06
2018-06-11T04:51:34.665Z,99160.33
2018-06-11T04:57:40.303Z,99159.56
2018-06-11T05:03:45.969Z,99162.07
2018-06-11T05:09:51.919Z,99163.25
2018-06-11T05:15:57.661Z,99168.53
2018-06-11T05:22:03.329Z,99159.52
2018-06-11T05:28:08.993Z,99161.55
2018-06-11T05:34:14.844Z,99167.86
2018-06-11T05:40:21.058Z,99166.64
2018-06-11T05:46:26.646Z,99169.22
2018-06-11T05:52:32.260Z,99173.62
2018-06-11T05:58:37.957Z,99161.39
2018-06-11T06:04:43.664Z,99156.22
2018-06-11T06:10:49.376Z,99157.91
2018-06-11T06:16:55.408Z,99149.83
2018-06-11T06:23:01.180Z,99156.67
2018-06-11T06:29:06.936Z,99154.55
2018-06-11T06:35:12.687Z,99171.33
2018-06-11T06:41:18.327Z,99169.97
2018-06-11T06:47:24.819Z,99175.38
2018-06-11T06:53:30.538Z,99176.49
2018-06-11T06:59:36.228Z,99181.12
2018-06-11T07:05:41.906Z,99177.52
2018-06-11T07:11:47.562Z,99172.95
2018-06-11T07:17:53.809Z,99189.92
2018-06-11T07:23:59.465Z,99193.85
2018-06-11T07:30:05.688Z,99194.49
2018-06-11T07:36:11.802Z,99196.88
2018-06-11T07:42:17.407Z,99186.78
2018-06-11T07:48:24.060Z,99188.75
2018-06-11T07:54:29.668Z,99194.02
2018-06-11T08:00:35.451Z,99198.20
2018-06-11T08:06:41.093Z,99199.78
2018-06-11T08:12:46.750Z,99203.02
2018-06-11T08:18:52.573Z,99206.97
2018-06-11T08:24:58.369Z,99207.76
2018-06-11T08:31:04.064Z,99217.48
2018-06-11T08:37:09.786Z,99214.30
2018-06-11T08:43:15.411Z,99222.48
2018-06-11T08:49:21.247Z,99213.91
2018-06-11T08:55:27.006Z,99208.02
2018-06-11T09:01:33.088Z,99211.02
2018-06-11T09:07:38.830Z,99209.08
2018-06-11T09:13:44.548Z,99197.91
2018-06-11T09:19:51.319Z,99213.19
2018-06-11T09:25:57.252Z,99205.55
2018-06-11T09:32:02.869Z,99210.33
2018-06-11T09:38:08.710Z,99199.47
2018-06-11T09:44:14.438Z,99195.38
2018-06-11T09:50:20.109Z,99194.67
2018-06-11T09:56:25.932Z,99193.89
2018-06-11T10:02:31.609Z,99202.98
2018-06-11T10:08:37.295Z,99207.20
2018-06-11T10:14:43.040Z,99222.84
2018-06-11T10:20:49.454Z,99185.66
2018-06-11T10:26:55.420Z,99174.48
2018-06-11T10:33:01.043Z,99169.05
2018-06-11T10:39:09.475Z,99160.56
2018-06-11T10:45:15.251Z,99157.02
2018-06-11T10:51:21.024Z,99151.57
2018-06-11T10:57:26.979Z,99147.68
2018-06-11T11:03:32.678Z,99144.17
2018-06-11T11:09:38.344Z,99132.09
2018-06-11T11:15:44.084Z,99137.17
2018-06-11T11:21:49.762Z,99121.67
2018-06-11T11:27:55.524Z,99119.27
2018-06-11T11:34:01.110Z,99110.41
2018-06-11T11:40:06.941Z,99098.26
2018-06-11T11:46:12.624Z,99105.56
2018-06-11T11:52:18.553Z,99089.09
2018-06-11T11:58:24.709Z,99080.53
2018-06-11T12:04:30.384Z,99086.28
2018-06-11T12:10:36.165Z,99074.91
2018-06-11T12:16:41.820Z,99061.16
2018-06-11T12:22:47.875Z,99055.60
2018-06-11T12:28:53.688Z,99036.24
2018-06-11T12:34:59.385Z,99028.20
2018-06-11T12:41:05.019Z,99019.98
2018-06-11T12:47:10.641Z,99013.09
2018-06-11T12:53:16.335Z,99006.97
2018-06-11T12:59:22.125Z,98997.52
2018-06-11T13:05:28.124Z,98997.21
2018-06-11T13:11:33.839Z,98991.22
2018-06-11T13:17:39.466Z,98985.84
2018-06-11T13:23:45.099Z,98978.39
2018-06-11T13:29:51.318Z,98995.04
2018-06-11T13:35:57.072Z,98983.00
2018-06-11T13:42:02.696Z,98976.55
2018-06-11T13:48:08.380Z,98968.02
2018-06-11T13:54:14.172Z,98972.48
2018-06-11T14:00:21.006Z,98953.42
2018-06-11T14:06:26.877Z,98940.39
2018-06-11T14:12:32.538Z,98935.31
2018-06-11T14:18:38.234Z,98934.73
2018-06-11T14:24:44.323Z,98927.13
2018-06-11T14:30:50.174Z,98920.30
2018-06-11T14:36:56.074Z,98917.54
2018-06-11T14:43:01.879Z,98921.03
2018-06-11T14:49:07.608Z,98927.67
2018-06-11T14:55:13.396Z,98931.63
2018-06-11T15:01:19.262Z,98936.23
2018-06-11T15:07:24.951Z,98927.34
2018-06-11T15:13:30.605Z,98922.12
2018-06-11T15:19:36.286Z,98909.67
2018-06-11T15:25:42.342Z,98895.95
2018-06-11T15:31:47.963Z,98882.26
2018-06-11T15:38:24.399Z,98893.28
2018-06-11T15:44:30.307Z,98877.32
2018-06-11T15:50:35.921Z,98891.92
2018-06-11T15:56:41.604Z,98890.69
2018-06-11T16:02:47.334Z,98875.67
2018-06-11T16:08:53.031Z,98869.13
2018-06-11T16:14:58.799Z,98870.91
2018-06-11T16:21:04.441Z,98868.61
2018-06-11T16:27:10.125Z,98863.13
2018-06-11T16:33:15.779Z,98852.34
2018-06-11T16:39:21.551Z,98849.80
2018-06-11T16:45:27.236Z,98840.47
2018-06-11T16:51:32.970Z,98833.96
2018-06-11T16:57:38.641Z,98830.98
2018-06-11T17:03:44.248Z,98833.77
2018-06-11T17:09:50.067Z,98836.46
2018-06-11T17:15:55.805Z,98826.67
2018-06-11T17:22:01.472Z,98813.47
2018-06-11T17:28:07.333Z,98797.70
2018-06-11T17:34:12.984Z,98793.73
2018-06-11T17:40:18.684Z,98786.98
2018-06-11T17:46:24.575Z,98783.06
2018-06-11T17:52:30.433Z,98783.02
2018-06-11T17:58:36.147Z,98792.07
2018-06-11T18:04:41.825Z,98802.59
2018-06-11T18:10:47.365Z,98793.20
2018-06-11T18:16:53.700Z,98799.84
2018-06-11T18:22:59.352Z,98803.13
2018-06-11T18:29:05.275Z,98807.86
2018-06-11T18:35:10.936Z,98800.43
2018-06-11T18:41:16.553Z,98808.76
2018-06-11T18:47:22.872Z,98835.52
2018-06-11T18:53:28.514Z,98850.16
2018-06-11T18:59:34.212Z,98867.28
2018-06-11T19:05:39.959Z,98880.45
2018-06-11T19:11:45.722Z,98894.38
2018-06-11T19:17:51.678Z,98901.72
2018-06-11T19:23:57.453Z,98903.93
2018-06-11T19:30:03.168Z,98899.91
2018-06-11T19:36:08.813Z,98904.84
2018-06-11T19:42:14.570Z,98895.05
2018-06-11T19:48:20.177Z,98904.84
2018-06-11T19:54:25.908Z,98900.21
2018-06-11T20:00:31.566Z,98894.49
2018-06-11T20:06:37.297Z,98892.32
2018-06-11T20:12:43.010Z,98895.55
2018-06-11T20:18:48.696Z,98888.19
2018-06-11T20:24:54.468Z,98887.31
2018-06-11T20:31:00.660Z,98884.31
2018-06-11T20:37:06.337Z,98874.22
2018-06-11T20:43:12.024Z,98876.09
2018-06-11T20:49:17.676Z,98882.34
2018-06-11T20:55:23.556Z,98888.48
2018-06-11T21:01:29.272Z,98886.84
2018-06-11T21:07:34.950Z,98888.16
2018-06-11T21:13:40.700Z,98886.30
2018-06-11T21:19:46.315Z,98900.55
2018-06-11T21:25:52.650Z,98898.38
2018-06-11T21:31:58.421Z,98906.03
2018-06-11T21:38:04.420Z,98910.30
2018-06-11T21:44:10.127Z,98927.38
2018-06-11T21:50:15.796Z,98921.20
2018-06-11T21:56:21.908Z,98919.51
2018-06-11T22:02:27.663Z,98915.58
2018-06-11T22:08:33.307Z,98909.74
2018-06-11T22:14:39.055Z,98899.55
2018-06-11T22:20:44.724Z,98902.77
2018-06-11T22:26:50.679Z,98901.69
2018-06-11T22:32:56.385Z,98894.16
2018-06-11T22:39:02.171Z,98897.81
2018-06-11T22:45:08.044Z,98895.20
2018-06-11T22:51:13.664Z,98891.27
2018-06-11T22:57:19.760Z,98889.46
2018-06-11T23:03:25.329Z,98881.99
2018-06-11T23:09:30.881Z,98889.01
2018-06-11T23:15:36.628Z,98882.28
2018-06-11T23:21:42.286Z,98888.23
2018-06-11T23:27:47.885Z,98880.48
2018-06-11T23:33:54.476Z,98877.28
2018-06-11T23:40:00.227Z,98883.85
2018-06-11T23:52:50.744Z,98891.59
2018-06-11T23:58:57.388Z,98902.09
